sensor_id;sensor_type;location;lat;lon;timestamp;P1;durP1;ratioP1;P2;durP2;ratioP2
13439;SDS011;6792;57.698;11.946;2024-01-15T00:00:11;2.73;;;1.43;;
13439;SDS011;6792;57.698;11.946;2024-01-15T00:02:41;1.30;;;1.10;;
13439;SDS011;6792;57.698;11.946;2024-01-15T00:05:11;4.83;;;1.70;;
13439;SDS011;6792;57.698;11.946;2024-01-15T00:07:40;3.97;;;1.30;;
13439;SDS011;6792;57.698;11.946;2024-01-15T00:10:09;4.60;;;1.97;;
13439;SDS011;6792;57.698;11.946;2024-01-15T00:12:38;2.90;;;1.30;;
13439;SDS011;6792;57.698;11.946;2024-01-15T00:15:08;4.20;;;1.37;;
13439;SDS011;6792;57.698;11.946;2024-01-15T00:17:37;5.03;;;1.60;;
13439;SDS011;6792;57.698;11.946;2024-01-15T00:20:07;2.47;;;1.33;;
13439;SDS011;6792;57.698;11.946;2024-01-15T00:22:38;5.17;;;1.20;;
13439;SDS011;6792;57.698;11.946;2024-01-15T00:25:11;1.93;;;0.93;;
13439;SDS011;6792;57.698;11.946;2024-01-15T00:27:41;3.50;;;1.20;;
13439;SDS011;6792;57.698;11.946;2024-01-15T00:30:12;2.63;;;1.10;;
13439;SDS011;6792;57.698;11.946;2024-01-15T00:32:42;3.17;;;1.00;;
13439;SDS011;6792;57.698;11.946;2024-01-15T00:35:11;2.30;;;1.10;;
13439;SDS011;6792;57.698;11.946;2024-01-15T00:37:40;2.10;;;1.20;;
13439;SDS011;6792;57.698;11.946;2024-01-15T00:40:09;2.60;;;1.23;;
13439;SDS011;6792;57.698;11.946;2024-01-15T00:42:38;4.30;;;0.93;;
13439;SDS011;6792;57.698;11.946;2024-01-15T00:45:09;3.03;;;1.10;;
13439;SDS011;6792;57.698;11.946;2024-01-15T00:47:38;3.53;;;1.47;;
13439;SDS011;6792;57.698;11.946;2024-01-15T00:50:08;2.77;;;1.20;;
13439;SDS011;6792;57.698;11.946;2024-01-15T00:52:38;5.60;;;1.30;;
13439;SDS011;6792;57.698;11.946;2024-01-15T00:55:08;3.60;;;1.17;;
13439;SDS011;6792;57.698;11.946;2024-01-15T00:57:37;3.00;;;1.00;;
13439;SDS011;6792;57.698;11.946;2024-01-15T01:00:08;1.83;;;0.97;;
13439;SDS011;6792;57.698;11.946;2024-01-15T01:02:38;2.60;;;1.10;;
13439;SDS011;6792;57.698;11.946;2024-01-15T01:05:08;6.83;;;1.37;;
13439;SDS011;6792;57.698;11.946;2024-01-15T01:07:40;2.53;;;1.57;;
13439;SDS011;6792;57.698;11.946;2024-01-15T01:10:09;2.90;;;1.57;;
13439;SDS011;6792;57.698;11.946;2024-01-15T01:12:38;2.10;;;1.60;;
13439;SDS011;6792;57.698;11.946;2024-01-15T01:15:08;7.33;;;2.07;;
13439;SDS011;6792;57.698;11.946;2024-01-15T01:17:37;5.63;;;2.03;;
13439;SDS011;6792;57.698;11.946;2024-01-15T01:20:07;4.40;;;2.30;;
13439;SDS011;6792;57.698;11.946;2024-01-15T01:22:37;3.67;;;2.00;;
13439;SDS011;6792;57.698;11.946;2024-01-15T01:25:07;3.23;;;2.17;;
13439;SDS011;6792;57.698;11.946;2024-01-15T01:27:36;4.83;;;2.40;;
13439;SDS011;6792;57.698;11.946;2024-01-15T01:30:06;6.10;;;2.60;;
13439;SDS011;6792;57.698;11.946;2024-01-15T01:32:35;2.80;;;2.10;;
13439;SDS011;6792;57.698;11.946;2024-01-15T01:35:09;5.43;;;2.53;;
13439;SDS011;6792;57.698;11.946;2024-01-15T01:37:41;2.67;;;2.00;;
13439;SDS011;6792;57.698;11.946;2024-01-15T01:40:10;3.83;;;2.10;;
13439;SDS011;6792;57.698;11.946;2024-01-15T01:42:39;3.20;;;1.80;;
13439;SDS011;6792;57.698;11.946;2024-01-15T01:45:11;2.97;;;1.83;;
13439;SDS011;6792;57.698;11.946;2024-01-15T01:47:40;4.33;;;1.93;;
13439;SDS011;6792;57.698;11.946;2024-01-15T01:50:10;4.70;;;1.57;;
13439;SDS011;6792;57.698;11.946;2024-01-15T01:52:40;2.37;;;1.47;;
13439;SDS011;6792;57.698;11.946;2024-01-15T01:55:09;4.37;;;1.40;;
13439;SDS011;6792;57.698;11.946;2024-01-15T01:57:40;1.90;;;1.70;;
13439;SDS011;6792;57.698;11.946;2024-01-15T02:00:12;2.10;;;1.50;;
13439;SDS011;6792;57.698;11.946;2024-01-15T02:02:42;0.67;;;0.67;;
13439;SDS011;6792;57.698;11.946;2024-01-15T02:05:14;1.20;;;0.77;;
13439;SDS011;6792;57.698;11.946;2024-01-15T02:07:45;0.50;;;0.30;;
13439;SDS011;6792;57.698;11.946;2024-01-15T02:10:14;1.27;;;0.20;;
13439;SDS011;6792;57.698;11.946;2024-01-15T02:12:44;0.30;;;0.20;;
13439;SDS011;6792;57.698;11.946;2024-01-15T02:15:15;0.17;;;0.10;;
13439;SDS011;6792;57.698;11.946;2024-01-15T02:18:00;0.20;;;0.20;;
13439;SDS011;6792;57.698;11.946;2024-01-15T02:20:30;0.10;;;0.10;;
13439;SDS011;6792;57.698;11.946;2024-01-15T02:23:07;0.10;;;0.10;;
13439;SDS011;6792;57.698;11.946;2024-01-15T02:25:39;0.10;;;0.10;;
13439;SDS011;6792;57.698;11.946;2024-01-15T02:28:18;2.17;;;0.23;;
13439;SDS011;6792;57.698;11.946;2024-01-15T02:30:48;0.20;;;0.20;;
13439;SDS011;6792;57.698;11.946;2024-01-15T02:33:17;0.10;;;0.10;;
13439;SDS011;6792;57.698;11.946;2024-01-15T02:35:46;0.00;;;0.00;;
13439;SDS011;6792;57.698;11.946;2024-01-15T02:38:16;0.50;;;0.10;;
13439;SDS011;6792;57.698;11.946;2024-01-15T02:40:45;0.10;;;0.10;;
13439;SDS011;6792;57.698;11.946;2024-01-15T02:43:14;0.20;;;0.20;;
13439;SDS011;6792;57.698;11.946;2024-01-15T02:45:45;0.20;;;0.20;;
13439;SDS011;6792;57.698;11.946;2024-01-15T02:48:14;0.40;;;0.10;;
13439;SDS011;6792;57.698;11.946;2024-01-15T02:50:43;0.10;;;0.10;;
13439;SDS011;6792;57.698;11.946;2024-01-15T02:53:13;0.10;;;0.10;;
13439;SDS011;6792;57.698;11.946;2024-01-15T02:55:42;0.10;;;0.10;;
13439;SDS011;6792;57.698;11.946;2024-01-15T02:58:11;0.40;;;0.00;;
13439;SDS011;6792;57.698;11.946;2024-01-15T03:00:40;0.00;;;0.00;;
13439;SDS011;6792;57.698;11.946;2024-01-15T03:03:10;0.23;;;0.10;;
13439;SDS011;6792;57.698;11.946;2024-01-15T03:05:39;0.00;;;0.00;;
13439;SDS011;6792;57.698;11.946;2024-01-15T03:08:11;0.63;;;0.20;;
13439;SDS011;6792;57.698;11.946;2024-01-15T03:10:40;0.63;;;0.10;;
13439;SDS011;6792;57.698;11.946;2024-01-15T03:13:09;0.27;;;0.10;;
13439;SDS011;6792;57.698;11.946;2024-01-15T03:15:39;0.10;;;0.10;;
13439;SDS011;6792;57.698;11.946;2024-01-15T03:18:08;2.60;;;0.30;;
13439;SDS011;6792;57.698;11.946;2024-01-15T03:20:37;0.23;;;0.10;;
13439;SDS011;6792;57.698;11.946;2024-01-15T03:23:06;2.10;;;0.10;;
13439;SDS011;6792;57.698;11.946;2024-01-15T03:25:35;0.00;;;0.00;;
13439;SDS011;6792;57.698;11.946;2024-01-15T03:28:05;0.10;;;0.10;;
13439;SDS011;6792;57.698;11.946;2024-01-15T03:30:34;2.43;;;0.20;;
13439;SDS011;6792;57.698;11.946;2024-01-15T03:33:03;0.23;;;0.10;;
13439;SDS011;6792;57.698;11.946;2024-01-15T03:35:32;0.13;;;0.10;;
13439;SDS011;6792;57.698;11.946;2024-01-15T03:38:02;0.30;;;0.10;;
13439;SDS011;6792;57.698;11.946;2024-01-15T03:40:31;1.07;;;0.27;;
13439;SDS011;6792;57.698;11.946;2024-01-15T03:43:00;0.57;;;0.20;;
13439;SDS011;6792;57.698;11.946;2024-01-15T03:45:30;0.20;;;0.20;;
13439;SDS011;6792;57.698;11.946;2024-01-15T03:47:59;0.20;;;0.13;;
13439;SDS011;6792;57.698;11.946;2024-01-15T03:50:28;0.80;;;0.20;;
13439;SDS011;6792;57.698;11.946;2024-01-15T03:52:57;0.13;;;0.10;;
13439;SDS011;6792;57.698;11.946;2024-01-15T03:55:26;0.20;;;0.10;;
13439;SDS011;6792;57.698;11.946;2024-01-15T03:57:55;0.93;;;0.10;;
13439;SDS011;6792;57.698;11.946;2024-01-15T04:00:24;0.70;;;0.30;;
13439;SDS011;6792;57.698;11.946;2024-01-15T04:02:53;0.20;;;0.10;;
13439;SDS011;6792;57.698;11.946;2024-01-15T04:05:22;0.40;;;0.20;;
13439;SDS011;6792;57.698;11.946;2024-01-15T04:07:51;3.07;;;0.20;;
13439;SDS011;6792;57.698;11.946;2024-01-15T04:10:20;1.53;;;0.40;;
13439;SDS011;6792;57.698;11.946;2024-01-15T04:12:49;0.10;;;0.00;;
13439;SDS011;6792;57.698;11.946;2024-01-15T04:15:18;0.10;;;0.10;;
13439;SDS011;6792;57.698;11.946;2024-01-15T04:17:47;0.50;;;0.10;;
13439;SDS011;6792;57.698;11.946;2024-01-15T04:20:16;0.30;;;0.20;;
13439;SDS011;6792;57.698;11.946;2024-01-15T04:22:45;1.37;;;0.20;;
13439;SDS011;6792;57.698;11.946;2024-01-15T04:25:14;0.20;;;0.20;;
13439;SDS011;6792;57.698;11.946;2024-01-15T04:27:43;1.17;;;0.17;;
13439;SDS011;6792;57.698;11.946;2024-01-15T04:30:13;0.10;;;0.10;;
13439;SDS011;6792;57.698;11.946;2024-01-15T04:32:42;5.17;;;0.20;;
13439;SDS011;6792;57.698;11.946;2024-01-15T04:35:12;2.80;;;0.20;;
13439;SDS011;6792;57.698;11.946;2024-01-15T04:37:41;0.37;;;0.20;;
13439;SDS011;6792;57.698;11.946;2024-01-15T04:40:11;0.37;;;0.20;;
13439;SDS011;6792;57.698;11.946;2024-01-15T04:42:41;0.10;;;0.10;;
13439;SDS011;6792;57.698;11.946;2024-01-15T04:45:12;2.10;;;0.30;;
13439;SDS011;6792;57.698;11.946;2024-01-15T04:47:41;0.10;;;0.10;;
13439;SDS011;6792;57.698;11.946;2024-01-15T04:50:10;0.23;;;0.20;;
13439;SDS011;6792;57.698;11.946;2024-01-15T04:52:39;0.67;;;0.10;;
13439;SDS011;6792;57.698;11.946;2024-01-15T04:55:08;0.30;;;0.10;;
13439;SDS011;6792;57.698;11.946;2024-01-15T04:57:40;0.30;;;0.13;;
13439;SDS011;6792;57.698;11.946;2024-01-15T05:00:11;0.30;;;0.00;;
13439;SDS011;6792;57.698;11.946;2024-01-15T05:02:41;0.30;;;0.20;;
13439;SDS011;6792;57.698;11.946;2024-01-15T05:05:10;0.33;;;0.20;;
13439;SDS011;6792;57.698;11.946;2024-01-15T05:07:39;0.00;;;0.00;;
13439;SDS011;6792;57.698;11.946;2024-01-15T05:10:09;0.13;;;0.10;;
13439;SDS011;6792;57.698;11.946;2024-01-15T05:12:38;6.83;;;0.30;;
13439;SDS011;6792;57.698;11.946;2024-01-15T05:15:08;3.00;;;0.43;;
13439;SDS011;6792;57.698;11.946;2024-01-15T05:17:37;0.27;;;0.20;;
13439;SDS011;6792;57.698;11.946;2024-01-15T05:20:07;0.10;;;0.10;;
13439;SDS011;6792;57.698;11.946;2024-01-15T05:22:37;0.23;;;0.13;;
13439;SDS011;6792;57.698;11.946;2024-01-15T05:25:09;0.93;;;0.10;;
13439;SDS011;6792;57.698;11.946;2024-01-15T05:27:41;0.10;;;0.10;;
13439;SDS011;6792;57.698;11.946;2024-01-15T05:30:11;0.10;;;0.00;;
13439;SDS011;6792;57.698;11.946;2024-01-15T05:32:42;0.13;;;0.13;;
13439;SDS011;6792;57.698;11.946;2024-01-15T05:35:12;0.30;;;0.20;;
13439;SDS011;6792;57.698;11.946;2024-01-15T05:37:43;1.67;;;0.37;;
13439;SDS011;6792;57.698;11.946;2024-01-15T05:40:13;0.27;;;0.20;;
13439;SDS011;6792;57.698;11.946;2024-01-15T05:42:42;0.30;;;0.30;;
13439;SDS011;6792;57.698;11.946;2024-01-15T05:45:11;0.30;;;0.20;;
13439;SDS011;6792;57.698;11.946;2024-01-15T05:47:41;4.67;;;0.40;;
13439;SDS011;6792;57.698;11.946;2024-01-15T05:50:10;0.77;;;0.30;;
13439;SDS011;6792;57.698;11.946;2024-01-15T05:52:39;0.73;;;0.13;;
13439;SDS011;6792;57.698;11.946;2024-01-15T05:55:10;1.77;;;0.13;;
13439;SDS011;6792;57.698;11.946;2024-01-15T05:57:41;0.10;;;0.10;;
13439;SDS011;6792;57.698;11.946;2024-01-15T06:00:12;0.10;;;0.10;;
13439;SDS011;6792;57.698;11.946;2024-01-15T06:02:42;0.10;;;0.10;;
13439;SDS011;6792;57.698;11.946;2024-01-15T06:05:11;1.57;;;0.10;;
13439;SDS011;6792;57.698;11.946;2024-01-15T06:07:41;0.43;;;0.10;;
